sensor_id;sensor_type;location;lat;lon;timestamp;P1;durP1;ratioP1;P2;durP2;ratioP2
13568;SDS011;6856;51.460;7.158;2023-05-10T00:00:26;3.13;;;1.90;;
13568;SDS011;6856;51.460;7.158;2023-05-10T00:03:02;2.37;;;2.00;;
13568;SDS011;6856;51.460;7.158;2023-05-10T00:05:37;2.00;;;1.73;;
13568;SDS011;6856;51.460;7.158;2023-05-10T00:08:11;2.40;;;2.00;;
13568;SDS011;6856;51.460;7.158;2023-05-10T00:10:45;2.10;;;1.70;;
13568;SDS011;6856;51.460;7.158;2023-05-10T00:13:19;2.40;;;2.20;;
13568;SDS011;6856;51.460;7.158;2023-05-10T00:15:52;2.23;;;1.70;;
13568;SDS011;6856;51.460;7.158;2023-05-10T00:18:27;2.17;;;1.90;;
13568;SDS011;6856;51.460;7.158;2023-05-10T00:21:01;3.00;;;2.20;;
13568;SDS011;6856;51.460;7.158;2023-05-10T00:23:35;2.40;;;2.03;;
13568;SDS011;6856;51.460;7.158;2023-05-10T00:26:09;2.13;;;1.73;;
13568;SDS011;6856;51.460;7.158;2023-05-10T00:28:43;2.60;;;2.20;;
13568;SDS011;6856;51.460;7.158;2023-05-10T00:31:17;3.40;;;2.40;;
13568;SDS011;6856;51.460;7.158;2023-05-10T00:33:53;3.23;;;2.37;;
13568;SDS011;6856;51.460;7.158;2023-05-10T00:36:27;3.03;;;2.40;;
13568;SDS011;6856;51.460;7.158;2023-05-10T00:39:02;2.90;;;2.40;;
13568;SDS011;6856;51.460;7.158;2023-05-10T00:41:36;2.93;;;2.43;;
13568;SDS011;6856;51.460;7.158;2023-05-10T00:44:10;4.43;;;2.40;;
13568;SDS011;6856;51.460;7.158;2023-05-10T00:46:44;3.40;;;2.70;;
13568;SDS011;6856;51.460;7.158;2023-05-10T00:49:21;3.37;;;2.77;;
13568;SDS011;6856;51.460;7.158;2023-05-10T00:51:54;3.60;;;3.00;;
13568;SDS011;6856;51.460;7.158;2023-05-10T00:54:28;4.40;;;3.17;;
13568;SDS011;6856;51.460;7.158;2023-05-10T00:57:03;3.20;;;2.63;;
13568;SDS011;6856;51.460;7.158;2023-05-10T00:59:37;3.80;;;3.17;;
13568;SDS011;6856;51.460;7.158;2023-05-10T01:02:11;3.57;;;3.20;;
13568;SDS011;6856;51.460;7.158;2023-05-10T01:04:47;3.87;;;3.27;;
13568;SDS011;6856;51.460;7.158;2023-05-10T01:07:23;5.77;;;3.97;;
13568;SDS011;6856;51.460;7.158;2023-05-10T01:09:58;3.93;;;3.40;;
13568;SDS011;6856;51.460;7.158;2023-05-10T01:12:32;4.10;;;3.60;;
13568;SDS011;6856;51.460;7.158;2023-05-10T01:15:09;3.47;;;2.97;;
13568;SDS011;6856;51.460;7.158;2023-05-10T01:17:44;3.17;;;2.87;;
13568;SDS011;6856;51.460;7.158;2023-05-10T01:20:22;3.60;;;3.03;;
13568;SDS011;6856;51.460;7.158;2023-05-10T01:23:08;4.70;;;3.47;;
13568;SDS011;6856;51.460;7.158;2023-05-10T01:29:39;2.77;;;2.40;;
13568;SDS011;6856;51.460;7.158;2023-05-10T01:32:49;3.53;;;2.77;;
13568;SDS011;6856;51.460;7.158;2023-05-10T01:35:35;4.17;;;3.30;;
13568;SDS011;6856;51.460;7.158;2023-05-10T01:38:18;3.80;;;3.30;;
13568;SDS011;6856;51.460;7.158;2023-05-10T01:41:05;4.03;;;3.33;;
13568;SDS011;6856;51.460;7.158;2023-05-10T01:43:53;3.77;;;2.83;;
13568;SDS011;6856;51.460;7.158;2023-05-10T01:46:35;3.47;;;3.13;;
13568;SDS011;6856;51.460;7.158;2023-05-10T01:49:13;4.50;;;3.40;;
13568;SDS011;6856;51.460;7.158;2023-05-10T01:51:57;3.80;;;3.30;;
13568;SDS011;6856;51.460;7.158;2023-05-10T01:54:41;4.20;;;3.20;;
13568;SDS011;6856;51.460;7.158;2023-05-10T01:57:26;3.97;;;2.90;;
13568;SDS011;6856;51.460;7.158;2023-05-10T02:00:11;4.07;;;2.77;;
13568;SDS011;6856;51.460;7.158;2023-05-10T02:02:48;4.23;;;3.30;;
13568;SDS011;6856;51.460;7.158;2023-05-10T02:05:26;5.73;;;3.57;;
13568;SDS011;6856;51.460;7.158;2023-05-10T02:08:03;4.63;;;3.50;;
13568;SDS011;6856;51.460;7.158;2023-05-10T02:10:40;4.53;;;3.30;;
13568;SDS011;6856;51.460;7.158;2023-05-10T02:13:16;4.93;;;3.70;;
13568;SDS011;6856;51.460;7.158;2023-05-10T02:15:51;3.83;;;3.13;;
13568;SDS011;6856;51.460;7.158;2023-05-10T02:18:27;4.03;;;3.17;;
13568;SDS011;6856;51.460;7.158;2023-05-10T02:21:05;4.50;;;3.43;;
13568;SDS011;6856;51.460;7.158;2023-05-10T02:23:41;5.10;;;4.03;;
13568;SDS011;6856;51.460;7.158;2023-05-10T02:26:17;5.30;;;3.97;;
13568;SDS011;6856;51.460;7.158;2023-05-10T02:28:57;5.50;;;4.03;;
13568;SDS011;6856;51.460;7.158;2023-05-10T02:31:34;4.93;;;3.83;;
13568;SDS011;6856;51.460;7.158;2023-05-10T02:34:10;5.33;;;4.23;;
13568;SDS011;6856;51.460;7.158;2023-05-10T02:36:47;5.57;;;4.30;;
13568;SDS011;6856;51.460;7.158;2023-05-10T02:39:22;5.17;;;4.00;;
13568;SDS011;6856;51.460;7.158;2023-05-10T02:41:57;5.67;;;4.27;;
13568;SDS011;6856;51.460;7.158;2023-05-10T02:44:33;5.07;;;4.10;;
13568;SDS011;6856;51.460;7.158;2023-05-10T02:47:09;6.30;;;4.67;;
13568;SDS011;6856;51.460;7.158;2023-05-10T02:49:42;5.77;;;4.50;;
13568;SDS011;6856;51.460;7.158;2023-05-10T02:52:19;5.27;;;4.40;;
13568;SDS011;6856;51.460;7.158;2023-05-10T02:55:00;5.13;;;4.30;;
13568;SDS011;6856;51.460;7.158;2023-05-10T02:57:38;4.93;;;3.97;;
13568;SDS011;6856;51.460;7.158;2023-05-10T03:00:18;5.43;;;4.10;;
13568;SDS011;6856;51.460;7.158;2023-05-10T03:02:52;6.30;;;4.47;;
13568;SDS011;6856;51.460;7.158;2023-05-10T03:05:27;5.57;;;4.27;;
13568;SDS011;6856;51.460;7.158;2023-05-10T03:08:02;7.67;;;4.50;;
13568;SDS011;6856;51.460;7.158;2023-05-10T03:10:38;4.57;;;3.70;;
13568;SDS011;6856;51.460;7.158;2023-05-10T03:13:36;6.20;;;4.60;;
13568;SDS011;6856;51.460;7.158;2023-05-10T03:16:24;5.33;;;4.13;;
13568;SDS011;6856;51.460;7.158;2023-05-10T03:19:09;5.40;;;4.10;;
13568;SDS011;6856;51.460;7.158;2023-05-10T03:21:52;5.63;;;4.27;;
13568;SDS011;6856;51.460;7.158;2023-05-10T03:24:34;7.50;;;5.60;;
13568;SDS011;6856;51.460;7.158;2023-05-10T03:27:11;5.47;;;4.23;;
13568;SDS011;6856;51.460;7.158;2023-05-10T03:29:48;6.53;;;4.37;;
13568;SDS011;6856;51.460;7.158;2023-05-10T03:32:23;6.97;;;4.87;;
13568;SDS011;6856;51.460;7.158;2023-05-10T03:34:58;6.33;;;4.73;;
13568;SDS011;6856;51.460;7.158;2023-05-10T03:37:33;5.60;;;4.20;;
13568;SDS011;6856;51.460;7.158;2023-05-10T03:40:09;6.23;;;4.50;;
13568;SDS011;6856;51.460;7.158;2023-05-10T03:42:44;6.10;;;4.83;;
13568;SDS011;6856;51.460;7.158;2023-05-10T03:45:18;7.27;;;5.87;;
13568;SDS011;6856;51.460;7.158;2023-05-10T03:47:52;7.73;;;6.60;;
13568;SDS011;6856;51.460;7.158;2023-05-10T03:50:27;9.20;;;7.13;;
13568;SDS011;6856;51.460;7.158;2023-05-10T03:53:00;9.00;;;6.57;;
13568;SDS011;6856;51.460;7.158;2023-05-10T03:55:36;8.53;;;7.23;;
13568;SDS011;6856;51.460;7.158;2023-05-10T03:58:10;8.43;;;7.37;;
13568;SDS011;6856;51.460;7.158;2023-05-10T04:00:44;8.97;;;7.53;;
13568;SDS011;6856;51.460;7.158;2023-05-10T04:03:18;8.93;;;7.43;;
13568;SDS011;6856;51.460;7.158;2023-05-10T04:05:58;9.53;;;7.50;;
13568;SDS011;6856;51.460;7.158;2023-05-10T04:08:33;9.97;;;7.40;;
13568;SDS011;6856;51.460;7.158;2023-05-10T04:11:10;8.37;;;6.70;;
13568;SDS011;6856;51.460;7.158;2023-05-10T04:13:45;7.57;;;6.63;;
13568;SDS011;6856;51.460;7.158;2023-05-10T04:16:19;8.67;;;7.20;;
13568;SDS011;6856;51.460;7.158;2023-05-10T04:18:53;7.20;;;6.40;;
13568;SDS011;6856;51.460;7.158;2023-05-10T04:21:26;6.90;;;6.20;;
13568;SDS011;6856;51.460;7.158;2023-05-10T04:24:00;8.83;;;7.50;;
13568;SDS011;6856;51.460;7.158;2023-05-10T04:26:36;9.17;;;7.47;;
13568;SDS011;6856;51.460;7.158;2023-05-10T04:29:09;8.63;;;7.60;;
13568;SDS011;6856;51.460;7.158;2023-05-10T04:31:43;9.33;;;8.07;;
13568;SDS011;6856;51.460;7.158;2023-05-10T04:34:17;11.00;;;8.67;;
13568;SDS011;6856;51.460;7.158;2023-05-10T04:36:50;9.33;;;7.73;;
13568;SDS011;6856;51.460;7.158;2023-05-10T04:39:24;10.63;;;8.17;;
13568;SDS011;6856;51.460;7.158;2023-05-10T04:42:00;9.77;;;8.37;;
13568;SDS011;6856;51.460;7.158;2023-05-10T04:44:34;11.97;;;8.50;;
13568;SDS011;6856;51.460;7.158;2023-05-10T04:47:08;12.03;;;9.60;;
13568;SDS011;6856;51.460;7.158;2023-05-10T04:49:44;11.20;;;9.50;;
13568;SDS011;6856;51.460;7.158;2023-05-10T04:52:17;10.93;;;9.47;;
13568;SDS011;6856;51.460;7.158;2023-05-10T04:54:50;11.80;;;10.07;;
13568;SDS011;6856;51.460;7.158;2023-05-10T04:57:26;12.30;;;10.63;;
13568;SDS011;6856;51.460;7.158;2023-05-10T05:00:00;12.47;;;10.63;;
13568;SDS011;6856;51.460;7.158;2023-05-10T05:02:34;14.23;;;11.50;;
13568;SDS011;6856;51.460;7.158;2023-05-10T05:05:09;12.63;;;11.13;;
13568;SDS011;6856;51.460;7.158;2023-05-10T05:07:43;13.13;;;11.40;;
13568;SDS011;6856;51.460;7.158;2023-05-10T05:10:17;13.03;;;10.63;;
13568;SDS011;6856;51.460;7.158;2023-05-10T05:12:52;13.87;;;11.97;;
13568;SDS011;6856;51.460;7.158;2023-05-10T05:15:26;13.53;;;11.67;;
13568;SDS011;6856;51.460;7.158;2023-05-10T05:18:01;13.63;;;11.50;;
13568;SDS011;6856;51.460;7.158;2023-05-10T05:20:35;13.70;;;12.20;;
13568;SDS011;6856;51.460;7.158;2023-05-10T05:23:09;14.40;;;12.37;;
13568;SDS011;6856;51.460;7.158;2023-05-10T05:25:43;15.37;;;12.63;;
13568;SDS011;6856;51.460;7.158;2023-05-10T05:28:18;13.57;;;11.87;;
13568;SDS011;6856;51.460;7.158;2023-05-10T05:30:52;13.33;;;11.60;;
13568;SDS011;6856;51.460;7.158;2023-05-10T05:33:26;13.43;;;12.03;;
13568;SDS011;6856;51.460;7.158;2023-05-10T05:36:00;15.27;;;13.63;;
13568;SDS011;6856;51.460;7.158;2023-05-10T05:38:37;15.73;;;13.20;;
13568;SDS011;6856;51.460;7.158;2023-05-10T05:41:10;15.67;;;13.27;;
13568;SDS011;6856;51.460;7.158;2023-05-10T05:43:47;15.77;;;13.17;;
13568;SDS011;6856;51.460;7.158;2023-05-10T05:46:21;14.70;;;12.60;;
13568;SDS011;6856;51.460;7.158;2023-05-10T05:48:54;15.30;;;13.10;;
13568;SDS011;6856;51.460;7.158;2023-05-10T05:51:28;16.20;;;13.93;;
13568;SDS011;6856;51.460;7.158;2023-05-10T05:54:02;17.50;;;14.70;;
13568;SDS011;6856;51.460;7.158;2023-05-10T05:56:36;15.83;;;14.13;;
13568;SDS011;6856;51.460;7.158;2023-05-10T05:59:12;16.57;;;13.93;;
13568;SDS011;6856;51.460;7.158;2023-05-10T06:01:45;17.13;;;14.70;;
13568;SDS011;6856;51.460;7.158;2023-05-10T06:04:19;17.10;;;14.87;;
13568;SDS011;6856;51.460;7.158;2023-05-10T06:06:53;16.83;;;14.27;;
13568;SDS011;6856;51.460;7.158;2023-05-10T06:09:27;15.60;;;13.53;;
13568;SDS011;6856;51.460;7.158;2023-05-10T06:12:01;14.97;;;12.80;;
13568;SDS011;6856;51.460;7.158;2023-05-10T06:14:37;16.33;;;14.00;;
13568;SDS011;6856;51.460;7.158;2023-05-10T06:17:11;16.70;;;13.90;;
13568;SDS011;6856;51.460;7.158;2023-05-10T06:19:44;15.87;;;14.17;;
13568;SDS011;6856;51.460;7.158;2023-05-10T06:22:18;15.47;;;13.43;;
13568;SDS011;6856;51.460;7.158;2023-05-10T06:24:53;15.67;;;13.60;;
13568;SDS011;6856;51.460;7.158;2023-05-10T06:27:27;15.83;;;13.57;;
13568;SDS011;6856;51.460;7.158;2023-05-10T06:30:06;15.67;;;12.53;;
13568;SDS011;6856;51.460;7.158;2023-05-10T06:32:43;15.30;;;13.03;;
13568;SDS011;6856;51.460;7.158;2023-05-10T06:35:18;15.17;;;12.57;;
13568;SDS011;6856;51.460;7.158;2023-05-10T06:37:52;14.83;;;12.83;;
13568;SDS011;6856;51.460;7.158;2023-05-10T06:40:27;14.37;;;12.20;;
13568;SDS011;6856;51.460;7.158;2023-05-10T06:43:01;15.47;;;13.00;;
13568;SDS011;6856;51.460;7.158;2023-05-10T06:45:36;14.00;;;12.20;;
13568;SDS011;6856;51.460;7.158;2023-05-10T06:48:10;16.03;;;12.90;;
13568;SDS011;6856;51.460;7.158;2023-05-10T06:50:44;16.43;;;14.60;;
13568;SDS011;6856;51.460;7.158;2023-05-10T06:53:17;19.20;;;14.13;;
13568;SDS011;6856;51.460;7.158;2023-05-10T06:55:51;16.23;;;14.07;;
13568;SDS011;6856;51.460;7.158;2023-05-10T06:58:24;18.13;;;14.87;;
13568;SDS011;6856;51.460;7.158;2023-05-10T07:01:02;16.10;;;14.40;;
13568;SDS011;6856;51.460;7.158;2023-05-10T07:03:37;15.63;;;13.87;;
13568;SDS011;6856;51.460;7.158;2023-05-10T07:06:10;15.10;;;12.60;;
13568;SDS011;6856;51.460;7.158;2023-05-10T07:09:03;16.63;;;13.90;;
13568;SDS011;6856;51.460;7.158;2023-05-10T07:11:37;19.47;;;14.33;;
13568;SDS011;6856;51.460;7.158;2023-05-10T07:14:11;17.70;;;14.60;;
13568;SDS011;6856;51.460;7.158;2023-05-10T07:16:46;19.07;;;14.33;;
13568;SDS011;6856;51.460;7.158;2023-05-10T07:19:20;20.80;;;14.43;;
13568;SDS011;6856;51.460;7.158;2023-05-10T07:21:55;18.57;;;14.20;;
13568;SDS011;6856;51.460;7.158;2023-05-10T07:24:31;17.43;;;12.37;;
13568;SDS011;6856;51.460;7.158;2023-05-10T07:27:06;16.90;;;13.30;;
13568;SDS011;6856;51.460;7.158;2023-05-10T07:29:40;16.73;;;13.20;;
13568;SDS011;6856;51.460;7.158;2023-05-10T07:32:16;18.57;;;13.67;;
13568;SDS011;6856;51.460;7.158;2023-05-10T07:34:50;18.57;;;13.97;;
13568;SDS011;6856;51.460;7.158;2023-05-10T07:37:24;17.37;;;13.17;;
13568;SDS011;6856;51.460;7.158;2023-05-10T07:39:58;18.17;;;14.67;;
13568;SDS011;6856;51.460;7.158;2023-05-10T07:42:32;19.40;;;13.97;;
13568;SDS011;6856;51.460;7.158;2023-05-10T07:45:07;17.70;;;13.90;;
13568;SDS011;6856;51.460;7.158;2023-05-10T07:47:43;18.07;;;13.43;;
13568;SDS011;6856;51.460;7.158;2023-05-10T07:50:17;19.20;;;13.73;;
13568;SDS011;6856;51.460;7.158;2023-05-10T07:52:51;17.63;;;13.80;;
13568;SDS011;6856;51.460;7.158;2023-05-10T07:55:25;21.73;;;14.43;;
13568;SDS011;6856;51.460;7.158;2023-05-10T07:58:00;18.80;;;13.77;;
13568;SDS011;6856;51.460;7.158;2023-05-10T08:00:36;19.83;;;15.37;;
13568;SDS011;6856;51.460;7.158;2023-05-10T08:03:12;20.63;;;15.47;;
13568;SDS011;6856;51.460;7.158;2023-05-10T08:05:46;22.70;;;15.67;;
13568;SDS011;6856;51.460;7.158;2023-05-10T08:08:20;18.43;;;15.10;;
13568;SDS011;6856;51.460;7.158;2023-05-10T08:10:55;17.50;;;14.30;;
13568;SDS011;6856;51.460;7.158;2023-05-10T08:13:29;19.43;;;15.50;;
13568;SDS011;6856;51.460;7.158;2023-05-10T08:16:04;19.97;;;15.80;;
13568;SDS011;6856;51.460;7.158;2023-05-10T08:18:40;18.73;;;14.47;;
13568;SDS011;6856;51.460;7.158;2023-05-10T08:21:14;17.97;;;13.43;;
13568;SDS011;6856;51.460;7.158;2023-05-10T08:23:48;16.57;;;13.40;;
13568;SDS011;6856;51.460;7.158;2023-05-10T08:26:22;18.63;;;13.87;;
13568;SDS011;6856;51.460;7.158;2023-05-10T08:28:56;18.87;;;13.93;;
13568;SDS011;6856;51.460;7.158;2023-05-10T08:31:30;20.07;;;14.80;;
13568;SDS011;6856;51.460;7.158;2023-05-10T08:34:05;18.57;;;14.17;;
13568;SDS011;6856;51.460;7.158;2023-05-10T08:36:39;17.20;;;13.87;;
13568;SDS011;6856;51.460;7.158;2023-05-10T08:39:13;17.37;;;14.37;;
13568;SDS011;6856;51.460;7.158;2023-05-10T08:42:01;17.40;;;12.93;;
13568;SDS011;6856;51.460;7.158;2023-05-10T08:44:37;15.93;;;12.57;;
13568;SDS011;6856;51.460;7.158;2023-05-10T08:47:11;14.10;;;11.27;;
13568;SDS011;6856;51.460;7.158;2023-05-10T08:49:50;13.37;;;10.53;;
13568;SDS011;6856;51.460;7.158;2023-05-10T08:52:26;12.70;;;9.67;;
13568;SDS011;6856;51.460;7.158;2023-05-10T08:55:04;11.37;;;8.57;;
13568;SDS011;6856;51.460;7.158;2023-05-10T08:57:38;11.23;;;8.13;;
13568;SDS011;6856;51.460;7.158;2023-05-10T09:00:13;10.67;;;8.10;;
13568;SDS011;6856;51.460;7.158;2023-05-10T09:02:48;10.20;;;7.57;;
13568;SDS011;6856;51.460;7.158;2023-05-10T09:05:25;10.23;;;8.67;;
13568;SDS011;6856;51.460;7.158;2023-05-10T09:07:58;11.67;;;8.90;;
13568;SDS011;6856;51.460;7.158;2023-05-10T09:10:32;11.10;;;8.67;;
13568;SDS011;6856;51.460;7.158;2023-05-10T09:13:07;11.90;;;9.00;;
13568;SDS011;6856;51.460;7.158;2023-05-10T09:15:44;12.20;;;9.67;;
13568;SDS011;6856;51.460;7.158;2023-05-10T09:18:19;12.30;;;9.00;;
13568;SDS011;6856;51.460;7.158;2023-05-10T09:20:55;11.47;;;8.83;;
13568;SDS011;6856;51.460;7.158;2023-05-10T09:23:29;10.03;;;7.50;;
13568;SDS011;6856;51.460;7.158;2023-05-10T09:26:03;10.93;;;8.00;;
13568;SDS011;6856;51.460;7.158;2023-05-10T09:28:49;11.47;;;8.20;;
13568;SDS011;6856;51.460;7.158;2023-05-10T09:31:42;8.87;;;6.90;;
13568;SDS011;6856;51.460;7.158;2023-05-10T09:34:18;9.90;;;7.30;;
13568;SDS011;6856;51.460;7.158;2023-05-10T09:36:55;10.03;;;7.90;;
13568;SDS011;6856;51.460;7.158;2023-05-10T09:39:32;9.53;;;7.50;;
13568;SDS011;6856;51.460;7.158;2023-05-10T09:42:08;11.10;;;8.20;;
13568;SDS011;6856;51.460;7.158;2023-05-10T09:44:42;11.33;;;7.90;;
13568;SDS011;6856;51.460;7.158;2023-05-10T09:47:19;12.57;;;8.83;;
13568;SDS011;6856;51.460;7.158;2023-05-10T09:49:53;12.03;;;8.37;;
13568;SDS011;6856;51.460;7.158;2023-05-10T09:52:32;11.10;;;8.70;;
13568;SDS011;6856;51.460;7.158;2023-05-10T09:55:22;13.33;;;9.40;;
13568;SDS011;6856;51.460;7.158;2023-05-10T09:58:01;14.10;;;9.83;;
13568;SDS011;6856;51.460;7.158;2023-05-10T10:00:36;11.50;;;8.90;;
13568;SDS011;6856;51.460;7.158;2023-05-10T10:03:12;12.30;;;9.70;;
13568;SDS011;6856;51.460;7.158;2023-05-10T10:05:48;14.03;;;10.10;;
13568;SDS011;6856;51.460;7.158;2023-05-10T10:08:24;14.73;;;10.93;;
13568;SDS011;6856;51.460;7.158;2023-05-10T10:10:58;17.10;;;10.60;;
13568;SDS011;6856;51.460;7.158;2023-05-10T10:13:33;18.23;;;11.80;;
13568;SDS011;6856;51.460;7.158;2023-05-10T10:16:08;14.60;;;11.30;;
13568;SDS011;6856;51.460;7.158;2023-05-10T10:18:42;13.57;;;10.80;;
13568;SDS011;6856;51.460;7.158;2023-05-10T10:21:17;13.53;;;10.37;;
13568;SDS011;6856;51.460;7.158;2023-05-10T10:23:53;13.60;;;10.33;;
13568;SDS011;6856;51.460;7.158;2023-05-10T10:26:27;13.23;;;9.70;;
13568;SDS011;6856;51.460;7.158;2023-05-10T10:29:04;13.20;;;9.63;;
13568;SDS011;6856;51.460;7.158;2023-05-10T10:31:57;12.53;;;9.63;;
13568;SDS011;6856;51.460;7.158;2023-05-10T10:34:43;11.80;;;9.30;;
13568;SDS011;6856;51.460;7.158;2023-05-10T10:37:17;12.13;;;9.03;;
13568;SDS011;6856;51.460;7.158;2023-05-10T10:39:53;10.80;;;8.57;;
13568;SDS011;6856;51.460;7.158;2023-05-10T10:42:44;10.90;;;8.73;;
13568;SDS011;6856;51.460;7.158;2023-05-10T10:45:21;11.10;;;8.27;;
13568;SDS011;6856;51.460;7.158;2023-05-10T10:50:58;10.23;;;7.57;;
13568;SDS011;6856;51.460;7.158;2023-05-10T10:53:33;10.53;;;8.97;;
13568;SDS011;6856;51.460;7.158;2023-05-10T10:56:10;11.53;;;10.07;;
13568;SDS011;6856;51.460;7.158;2023-05-10T10:58:49;11.03;;;9.83;;
13568;SDS011;6856;51.460;7.158;2023-05-10T11:01:25;10.73;;;9.43;;
13568;SDS011;6856;51.460;7.158;2023-05-10T11:04:18;11.67;;;9.43;;
13568;SDS011;6856;51.460;7.158;2023-05-10T11:06:53;10.17;;;8.93;;
13568;SDS011;6856;51.460;7.158;2023-05-10T11:09:50;9.13;;;7.93;;
13568;SDS011;6856;51.460;7.158;2023-05-10T11:12:26;13.17;;;9.63;;
13568;SDS011;6856;51.460;7.158;2023-05-10T11:14:59;13.43;;;9.00;;
13568;SDS011;6856;51.460;7.158;2023-05-10T11:17:34;13.10;;;9.03;;
13568;SDS011;6856;51.460;7.158;2023-05-10T11:20:09;11.07;;;8.13;;
13568;SDS011;6856;51.460;7.158;2023-05-10T11:22:50;10.13;;;7.87;;
13568;SDS011;6856;51.460;7.158;2023-05-10T11:25:26;10.60;;;8.30;;
13568;SDS011;6856;51.460;7.158;2023-05-10T11:28:02;9.57;;;7.17;;
13568;SDS011;6856;51.460;7.158;2023-05-10T11:30:37;10.67;;;7.47;;
13568;SDS011;6856;51.460;7.158;2023-05-10T11:33:15;8.23;;;6.73;;
13568;SDS011;6856;51.460;7.158;2023-05-10T11:35:51;8.17;;;6.50;;
13568;SDS011;6856;51.460;7.158;2023-05-10T11:38:26;10.07;;;7.30;;
13568;SDS011;6856;51.460;7.158;2023-05-10T11:41:00;8.73;;;6.47;;
13568;SDS011;6856;51.460;7.158;2023-05-10T11:43:36;9.33;;;6.67;;
13568;SDS011;6856;51.460;7.158;2023-05-10T11:46:12;7.83;;;6.30;;
13568;SDS011;6856;51.460;7.158;2023-05-10T11:48:46;7.47;;;6.10;;
13568;SDS011;6856;51.460;7.158;2023-05-10T11:51:23;7.87;;;5.97;;
13568;SDS011;6856;51.460;7.158;2023-05-10T11:53:58;6.77;;;5.40;;
13568;SDS011;6856;51.460;7.158;2023-05-10T11:56:34;8.03;;;5.93;;
13568;SDS011;6856;51.460;7.158;2023-05-10T11:59:10;8.47;;;6.43;;
13568;SDS011;6856;51.460;7.158;2023-05-10T12:01:47;9.07;;;6.90;;
13568;SDS011;6856;51.460;7.158;2023-05-10T12:04:22;9.57;;;6.97;;
13568;SDS011;6856;51.460;7.158;2023-05-10T12:06:56;9.63;;;6.80;;
13568;SDS011;6856;51.460;7.158;2023-05-10T12:09:30;9.93;;;6.77;;
13568;SDS011;6856;51.460;7.158;2023-05-10T12:12:15;10.20;;;7.43;;
13568;SDS011;6856;51.460;7.158;2023-05-10T12:14:51;9.13;;;7.30;;
13568;SDS011;6856;51.460;7.158;2023-05-10T12:17:27;10.20;;;7.13;;
13568;SDS011;6856;51.460;7.158;2023-05-10T12:20:12;7.70;;;6.70;;
13568;SDS011;6856;51.460;7.158;2023-05-10T12:22:49;8.70;;;6.67;;
13568;SDS011;6856;51.460;7.158;2023-05-10T12:25:29;10.17;;;7.57;;
13568;SDS011;6856;51.460;7.158;2023-05-10T12:28:05;8.57;;;6.73;;
13568;SDS011;6856;51.460;7.158;2023-05-10T12:30:42;7.37;;;6.10;;
13568;SDS011;6856;51.460;7.158;2023-05-10T12:33:17;7.77;;;6.50;;
13568;SDS011;6856;51.460;7.158;2023-05-10T12:35:51;8.63;;;7.13;;
13568;SDS011;6856;51.460;7.158;2023-05-10T12:38:28;7.77;;;6.50;;
13568;SDS011;6856;51.460;7.158;2023-05-10T12:41:06;8.50;;;6.53;;
13568;SDS011;6856;51.460;7.158;2023-05-10T12:43:42;8.90;;;6.70;;
13568;SDS011;6856;51.460;7.158;2023-05-10T12:46:19;8.23;;;6.83;;
13568;SDS011;6856;51.460;7.158;2023-05-10T12:48:57;8.87;;;7.17;;
13568;SDS011;6856;51.460;7.158;2023-05-10T12:51:39;7.53;;;5.77;;
13568;SDS011;6856;51.460;7.158;2023-05-10T12:54:13;8.27;;;6.57;;
13568;SDS011;6856;51.460;7.158;2023-05-10T12:56:47;7.43;;;5.47;;
13568;SDS011;6856;51.460;7.158;2023-05-10T12:59:21;8.93;;;6.07;;
13568;SDS011;6856;51.460;7.158;2023-05-10T13:01:56;8.87;;;6.50;;
13568;SDS011;6856;51.460;7.158;2023-05-10T13:04:30;7.83;;;6.30;;
13568;SDS011;6856;51.460;7.158;2023-05-10T13:07:05;6.17;;;5.57;;
13568;SDS011;6856;51.460;7.158;2023-05-10T13:09:39;9.57;;;6.87;;
13568;SDS011;6856;51.460;7.158;2023-05-10T13:12:13;7.30;;;5.67;;
13568;SDS011;6856;51.460;7.158;2023-05-10T13:14:47;6.93;;;5.43;;
13568;SDS011;6856;51.460;7.158;2023-05-10T13:17:23;5.73;;;4.90;;
13568;SDS011;6856;51.460;7.158;2023-05-10T13:19:59;6.00;;;4.13;;
13568;SDS011;6856;51.460;7.158;2023-05-10T13:22:32;5.23;;;3.77;;
13568;SDS011;6856;51.460;7.158;2023-05-10T13:25:11;5.40;;;4.10;;
13568;SDS011;6856;51.460;7.158;2023-05-10T13:27:45;5.43;;;3.57;;
13568;SDS011;6856;51.460;7.158;2023-05-10T13:30:19;4.17;;;3.77;;
13568;SDS011;6856;51.460;7.158;2023-05-10T13:32:54;3.83;;;3.37;;
13568;SDS011;6856;51.460;7.158;2023-05-10T13:35:29;4.40;;;3.30;;
13568;SDS011;6856;51.460;7.158;2023-05-10T13:38:03;3.73;;;2.93;;
13568;SDS011;6856;51.460;7.158;2023-05-10T13:40:39;3.70;;;2.80;;
13568;SDS011;6856;51.460;7.158;2023-05-10T13:43:13;4.87;;;2.70;;
13568;SDS011;6856;51.460;7.158;2023-05-10T13:45:46;3.57;;;2.90;;
13568;SDS011;6856;51.460;7.158;2023-05-10T13:48:22;4.23;;;2.67;;
13568;SDS011;6856;51.460;7.158;2023-05-10T13:50:57;3.43;;;2.77;;
13568;SDS011;6856;51.460;7.158;2023-05-10T13:53:30;4.00;;;3.03;;
13568;SDS011;6856;51.460;7.158;2023-05-10T13:56:05;3.63;;;2.83;;
13568;SDS011;6856;51.460;7.158;2023-05-10T13:58:39;3.90;;;2.60;;
13568;SDS011;6856;51.460;7.158;2023-05-10T14:01:14;3.57;;;2.67;;
13568;SDS011;6856;51.460;7.158;2023-05-10T14:03:49;3.43;;;2.50;;
13568;SDS011;6856;51.460;7.158;2023-05-10T14:06:23;2.53;;;2.10;;
13568;SDS011;6856;51.460;7.158;2023-05-10T14:08:58;5.93;;;2.27;;
13568;SDS011;6856;51.460;7.158;2023-05-10T14:11:31;3.83;;;2.60;;
13568;SDS011;6856;51.460;7.158;2023-05-10T14:14:05;2.90;;;2.20;;
13568;SDS011;6856;51.460;7.158;2023-05-10T14:16:41;3.80;;;2.47;;
13568;SDS011;6856;51.460;7.158;2023-05-10T14:19:18;4.23;;;2.63;;
13568;SDS011;6856;51.460;7.158;2023-05-10T14:21:52;5.37;;;3.13;;
13568;SDS011;6856;51.460;7.158;2023-05-10T14:24:26;4.97;;;2.97;;
13568;SDS011;6856;51.460;7.158;2023-05-10T14:27:00;6.07;;;3.17;;
13568;SDS011;6856;51.460;7.158;2023-05-10T14:29:34;4.57;;;2.93;;
13568;SDS011;6856;51.460;7.158;2023-05-10T14:32:08;4.40;;;3.13;;
13568;SDS011;6856;51.460;7.158;2023-05-10T14:34:43;3.60;;;2.63;;
13568;SDS011;6856;51.460;7.158;2023-05-10T14:37:17;3.23;;;2.83;;
13568;SDS011;6856;51.460;7.158;2023-05-10T14:39:51;3.53;;;2.60;;
13568;SDS011;6856;51.460;7.158;2023-05-10T14:42:25;4.03;;;2.63;;
13568;SDS011;6856;51.460;7.158;2023-05-10T14:44:59;3.10;;;2.50;;
13568;SDS011;6856;51.460;7.158;2023-05-10T14:47:33;3.00;;;2.47;;
13568;SDS011;6856;51.460;7.158;2023-05-10T14:50:09;3.23;;;2.40;;
13568;SDS011;6856;51.460;7.158;2023-05-10T14:53:02;3.70;;;2.40;;
13568;SDS011;6856;51.460;7.158;2023-05-10T14:55:36;3.63;;;2.13;;
13568;SDS011;6856;51.460;7.158;2023-05-10T14:58:11;3.10;;;2.10;;
13568;SDS011;6856;51.460;7.158;2023-05-10T15:00:45;2.77;;;1.90;;
13568;SDS011;6856;51.460;7.158;2023-05-10T15:03:20;3.90;;;2.53;;
13568;SDS011;6856;51.460;7.158;2023-05-10T15:05:56;2.83;;;2.00;;
13568;SDS011;6856;51.460;7.158;2023-05-10T15:08:30;3.30;;;2.40;;
13568;SDS011;6856;51.460;7.158;2023-05-10T15:11:04;3.27;;;2.63;;
13568;SDS011;6856;51.460;7.158;2023-05-10T15:13:38;3.60;;;2.53;;
13568;SDS011;6856;51.460;7.158;2023-05-10T15:16:12;3.30;;;2.70;;
13568;SDS011;6856;51.460;7.158;2023-05-10T15:18:46;4.10;;;2.53;;
13568;SDS011;6856;51.460;7.158;2023-05-10T15:21:22;3.70;;;2.43;;
13568;SDS011;6856;51.460;7.158;2023-05-10T15:23:56;4.03;;;2.53;;
13568;SDS011;6856;51.460;7.158;2023-05-10T15:26:30;3.87;;;2.93;;
13568;SDS011;6856;51.460;7.158;2023-05-10T15:29:04;3.37;;;3.03;;
13568;SDS011;6856;51.460;7.158;2023-05-10T15:31:38;4.60;;;3.53;;
13568;SDS011;6856;51.460;7.158;2023-05-10T15:34:12;5.63;;;4.10;;
13568;SDS011;6856;51.460;7.158;2023-05-10T15:36:48;5.03;;;3.97;;
13568;SDS011;6856;51.460;7.158;2023-05-10T15:39:21;5.90;;;4.10;;
13568;SDS011;6856;51.460;7.158;2023-05-10T15:41:55;3.83;;;3.27;;
13568;SDS011;6856;51.460;7.158;2023-05-10T15:44:29;3.80;;;3.27;;
13568;SDS011;6856;51.460;7.158;2023-05-10T15:47:03;5.10;;;3.77;;
13568;SDS011;6856;51.460;7.158;2023-05-10T15:49:38;4.60;;;3.73;;